createdAt,value
2019-04-11T00:00:52.061Z,32.23
2019-04-11T00:03:21.740Z,33.47
2019-04-11T00:05:51.287Z,34.40
2019-04-11T00:08:21.653Z,33.27
2019-04-11T00:10:53.541Z,34.33
2019-04-11T00:13:26.747Z,35.90
2019-04-11T00:15:54.990Z,34.10
2019-04-11T00:18:26.969Z,33.43
2019-04-11T00:20:58.198Z,39.33
2019-04-11T00:23:27.647Z,36.17
2019-04-11T00:25:59.975Z,34.00
2019-04-11T00:28:31.978Z,35.40
2019-04-11T00:31:01.421Z,36.90
2019-04-11T00:33:31.958Z,36.17
2019-04-11T00:36:04.111Z,34.67
2019-04-11T00:38:34.507Z,34.20
2019-04-11T00:41:05.862Z,34.80
2019-04-11T00:43:40.426Z,36.90
2019-04-11T00:46:07.871Z,34.27
2019-04-11T00:48:37.731Z,38.47
2019-04-11T00:51:11.799Z,34.67
2019-04-11T00:53:42.334Z,32.63
2019-04-11T00:56:12.423Z,35.20
2019-04-11T00:58:41.932Z,33.97
2019-04-11T01:01:13.642Z,39.40
2019-04-11T01:03:43.283Z,35.67
2019-04-11T01:06:14.189Z,36.73
2019-04-11T01:08:44.015Z,33.93
2019-04-11T01:11:14.002Z,32.97
2019-04-11T01:13:49.159Z,33.77
2019-04-11T01:16:24.858Z,35.20
2019-04-11T01:18:55.580Z,34.70
2019-04-11T01:21:24.980Z,35.77
2019-04-11T01:23:55.589Z,34.00
2019-04-11T01:26:25.350Z,32.13
2019-04-11T01:28:55.999Z,34.40
2019-04-11T01:31:30.610Z,34.00
2019-04-11T01:34:00.213Z,36.07
2019-04-11T01:36:37.391Z,33.03
2019-04-11T01:39:13.024Z,32.63
2019-04-11T01:41:45.214Z,34.53
2019-04-11T01:44:14.776Z,31.63
2019-04-11T01:46:46.489Z,30.93
2019-04-11T01:49:20.606Z,34.97
2019-04-11T01:51:50.185Z,30.57
2019-04-11T01:54:21.761Z,29.87
2019-04-11T01:56:52.191Z,33.20
2019-04-11T01:59:21.834Z,31.87
2019-04-11T02:02:07.479Z,32.10
2019-04-11T02:04:56.769Z,31.43
2019-04-11T02:07:27.171Z,31.80
2019-04-11T02:09:56.797Z,32.07
2019-04-11T02:12:26.895Z,32.27
2019-04-11T02:14:57.640Z,30.10
2019-04-11T02:17:27.072Z,32.27
2019-04-11T02:19:56.611Z,29.43
2019-04-11T02:22:42.426Z,30.07
2019-04-11T02:25:16.477Z,35.63
2019-04-11T02:27:46.299Z,33.83
2019-04-11T02:30:17.928Z,33.10
2019-04-11T02:32:47.967Z,33.53
2019-04-11T02:35:19.856Z,32.73
2019-04-11T02:37:51.557Z,33.37
2019-04-11T02:40:22.306Z,30.13
2019-04-11T02:42:53.181Z,30.03
2019-04-11T02:45:36.994Z,32.77
2019-04-11T02:47:56.329Z,29.30
2019-04-11T02:50:34.386Z,33.43
2019-04-11T02:53:05.059Z,32.60
2019-04-11T02:55:35.797Z,32.47
2019-04-11T02:58:07.794Z,32.37
2019-04-11T03:00:40.216Z,31.53
2019-04-11T03:03:10.353Z,33.63
2019-04-11T03:05:44.570Z,33.43
2019-04-11T03:08:18.897Z,30.10
2019-04-11T03:10:46.652Z,28.60
2019-04-11T03:13:16.790Z,29.43
2019-04-11T03:15:59.490Z,28.37
2019-04-11T03:18:35.674Z,35.23
2019-04-11T03:20:56.064Z,32.73
2019-04-11T03:23:21.255Z,33.93
2019-04-11T03:25:52.443Z,32.97
2019-04-11T03:28:25.678Z,32.53
2019-04-11T03:31:13.163Z,33.97
2019-04-11T03:34:18.294Z,31.93
2019-04-11T03:38:46.678Z,33.80
2019-04-11T03:41:18.911Z,29.87
2019-04-11T03:43:38.017Z,31.10
2019-04-11T03:46:19.527Z,31.10
2019-04-11T03:48:42.196Z,34.27
2019-04-11T03:51:04.598Z,33.53
2019-04-11T03:53:37.686Z,31.60
2019-04-11T03:56:09.639Z,28.87
2019-04-11T03:58:39.755Z,30.40
2019-04-11T04:01:11.526Z,32.50
2019-04-11T04:03:42.398Z,31.60
2019-04-11T04:06:12.937Z,29.50
2019-04-11T04:08:42.478Z,31.83
2019-04-11T04:11:14.870Z,32.33
2019-04-11T04:13:48.229Z,35.73
2019-04-11T04:16:40.761Z,31.90
2019-04-11T04:19:25.122Z,33.47
2019-04-11T04:22:04.938Z,29.20
2019-04-11T04:24:40.095Z,31.73
2019-04-11T04:27:10.418Z,38.33
2019-04-11T04:29:41.344Z,35.67
2019-04-11T04:32:12.057Z,33.43
2019-04-11T04:35:01.144Z,42.80
2019-04-11T04:37:34.703Z,35.23
2019-04-11T04:40:23.316Z,35.37
2019-04-11T04:42:46.604Z,45.73
2019-04-11T04:45:14.010Z,36.53
2019-04-11T04:47:48.941Z,38.97
2019-04-11T04:50:18.066Z,34.37
2019-04-11T04:52:48.966Z,34.40
2019-04-11T04:55:23.664Z,39.47
2019-04-11T04:57:55.249Z,33.70
2019-04-11T05:00:25.440Z,37.40
2019-04-11T05:02:56.878Z,35.53
2019-04-11T05:05:29.233Z,36.87
2019-04-11T05:08:35.302Z,38.40
2019-04-11T05:11:04.943Z,40.23
2019-04-11T05:13:34.575Z,32.30
2019-04-11T05:16:16.431Z,38.90
2019-04-11T05:18:36.459Z,36.50
2019-04-11T05:21:06.100Z,40.73
2019-04-11T05:23:35.535Z,33.07
2019-04-11T05:26:06.740Z,35.50
2019-04-11T05:28:37.386Z,37.33
2019-04-11T05:31:08.009Z,39.87
2019-04-11T05:33:37.479Z,34.83
2019-04-11T05:36:07.910Z,36.27
2019-04-11T05:38:37.963Z,37.17
2019-04-11T05:41:12.101Z,34.20
2019-04-11T05:43:40.123Z,35.60
2019-04-11T05:46:24.002Z,34.23
2019-04-11T05:48:51.065Z,29.97
2019-04-11T05:51:23.365Z,29.83
2019-04-11T05:53:54.449Z,34.47
2019-04-11T05:56:28.005Z,30.43
2019-04-11T05:58:59.884Z,29.03
2019-04-11T06:01:39.807Z,36.13
2019-04-11T06:04:15.379Z,33.97
2019-04-11T06:06:57.237Z,35.77
2019-04-11T06:09:32.970Z,31.23
2019-04-11T06:12:13.682Z,45.30
2019-04-11T06:14:53.539Z,35.97
2019-04-11T06:17:23.915Z,31.60
2019-04-11T06:20:12.495Z,31.80
2019-04-11T06:22:43.801Z,32.80
2019-04-11T06:25:28.160Z,32.80
2019-04-11T06:27:59.963Z,31.67
2019-04-11T06:30:42.658Z,36.53
2019-04-11T06:33:16.382Z,32.40
2019-04-11T06:35:55.051Z,30.27
2019-04-11T06:38:44.993Z,34.57
2019-04-11T06:41:34.718Z,31.00
2019-04-11T06:44:09.230Z,30.70
2019-04-11T06:46:50.483Z,27.07
2019-04-11T06:49:22.466Z,27.13
2019-04-11T06:51:56.755Z,32.30
2019-04-11T06:54:37.155Z,30.97
2019-04-11T06:57:20.102Z,26.67
2019-04-11T06:59:51.103Z,23.97
2019-04-11T07:02:24.070Z,26.83
2019-04-11T07:04:56.029Z,26.73
2019-04-11T07:07:29.468Z,28.27
2019-04-11T07:10:02.254Z,24.83
2019-04-11T07:12:35.687Z,24.63
2019-04-11T07:15:15.428Z,23.07
2019-04-11T07:18:07.087Z,21.27
2019-04-11T07:20:52.314Z,24.00
2019-04-11T07:23:40.550Z,20.97
2019-04-11T07:26:16.601Z,22.63
2019-04-11T07:28:47.960Z,22.10
2019-04-11T07:31:35.532Z,23.27
2019-04-11T07:34:24.125Z,22.63
2019-04-11T07:36:57.986Z,24.77
2019-04-11T07:39:31.738Z,22.53
2019-04-11T07:42:21.206Z,19.33
2019-04-11T07:45:01.355Z,21.60
2019-04-11T07:47:32.804Z,22.77
2019-04-11T07:50:06.054Z,23.63
2019-04-11T07:52:38.007Z,19.83
2019-04-11T07:55:08.819Z,21.63
2019-04-11T07:57:48.991Z,20.73
2019-04-11T08:00:35.901Z,19.93
2019-04-11T08:03:12.325Z,23.27
2019-04-11T08:05:52.259Z,19.77
2019-04-11T08:08:23.352Z,19.63
2019-04-11T08:10:58.110Z,20.27
2019-04-11T08:13:38.811Z,16.63
2019-04-11T08:16:28.860Z,16.17
2019-04-11T08:19:15.958Z,18.27
2019-04-11T08:22:03.139Z,20.13
2019-04-11T08:24:44.895Z,20.27
2019-04-11T08:27:27.846Z,18.20
2019-04-11T08:30:00.352Z,17.40
2019-04-11T08:32:31.714Z,14.57
2019-04-11T08:35:19.854Z,14.93
2019-04-11T08:38:07.897Z,15.13
2019-04-11T08:40:53.470Z,16.50
2019-04-11T08:43:33.648Z,12.13
2019-04-11T08:46:05.114Z,12.70
2019-04-11T08:48:37.168Z,15.20
2019-04-11T08:51:09.702Z,15.53
2019-04-11T08:53:44.813Z,12.80
2019-04-11T08:56:16.294Z,12.50
2019-04-11T08:59:13.483Z,16.40
2019-04-11T09:01:42.939Z,14.97
2019-04-11T09:04:30.149Z,15.53
2019-04-11T09:07:01.075Z,14.73
2019-04-11T09:09:48.350Z,15.10
2019-04-11T09:12:18.439Z,17.20
2019-04-11T09:14:52.663Z,14.20
2019-04-11T09:17:23.764Z,13.97
2019-04-11T09:19:55.213Z,20.93
2019-04-11T09:22:33.232Z,14.10
2019-04-11T09:25:10.899Z,17.80
2019-04-11T09:27:54.443Z,17.40
2019-04-11T09:30:26.630Z,15.17
2019-04-11T09:32:58.268Z,17.90
2019-04-11T09:35:45.621Z,14.77
2019-04-11T09:38:16.697Z,15.47
2019-04-11T09:40:54.825Z,15.47
2019-04-11T09:43:35.828Z,16.57
2019-04-11T09:46:18.671Z,14.00
2019-04-11T09:49:04.804Z,13.60
2019-04-11T09:51:36.136Z,14.90
2019-04-11T09:54:09.179Z,14.27
2019-04-11T09:56:41.208Z,11.83
2019-04-11T09:59:12.536Z,15.83
2019-04-11T10:02:00.321Z,15.13
2019-04-11T10:04:31.958Z,17.33
2019-04-11T10:07:17.603Z,17.97
2019-04-11T10:10:04.585Z,14.43
2019-04-11T10:12:52.236Z,14.27
2019-04-11T10:15:23.372Z,13.40
2019-04-11T10:18:19.992Z,16.20
2019-04-11T10:20:42.578Z,14.90
2019-04-11T10:23:18.808Z,14.60
2019-04-11T10:25:51.654Z,13.97
2019-04-11T10:28:30.328Z,13.03
2019-04-11T10:31:08.680Z,12.07
2019-04-11T10:33:39.860Z,12.50
2019-04-11T10:36:16.954Z,15.00
2019-04-11T10:38:47.504Z,14.73
2019-04-11T10:41:36.530Z,12.57
2019-04-11T10:44:07.579Z,12.90
2019-04-11T10:46:44.294Z,15.93
2019-04-11T10:49:24.234Z,13.43
2019-04-11T10:52:14.059Z,13.57
2019-04-11T10:54:47.079Z,12.87
2019-04-11T10:57:24.378Z,12.60
2019-04-11T10:59:54.570Z,17.97
2019-04-11T11:02:35.637Z,14.73
2019-04-11T11:05:05.887Z,12.20
2019-04-11T11:07:36.721Z,18.80
2019-04-11T11:10:12.152Z,16.40
2019-04-11T11:12:59.420Z,14.53
2019-04-11T11:15:31.543Z,16.47
2019-04-11T11:18:38.120Z,15.07
2019-04-11T11:20:54.038Z,14.57
2019-04-11T11:23:20.359Z,18.23
2019-04-11T11:26:07.527Z,17.80
2019-04-11T11:28:54.745Z,15.47
2019-04-11T11:31:34.896Z,14.07
2019-04-11T11:34:07.682Z,16.00
2019-04-11T11:36:54.961Z,13.53
2019-04-11T11:39:30.999Z,15.37
2019-04-11T11:42:22.570Z,12.33
2019-04-11T11:45:17.667Z,15.83
2019-04-11T11:48:08.947Z,13.13
2019-04-11T11:50:37.826Z,12.03
2019-04-11T11:53:25.869Z,12.10
2019-04-11T11:55:59.813Z,14.43
2019-04-11T11:58:53.014Z,12.70
2019-04-11T12:01:19.768Z,11.47
2019-04-11T12:03:57.522Z,12.67
2019-04-11T12:06:25.766Z,13.03
2019-04-11T12:09:00.341Z,13.87
2019-04-11T12:11:32.397Z,12.67
2019-04-11T12:14:22.215Z,11.83
2019-04-11T12:17:05.083Z,15.10
2019-04-11T12:19:44.716Z,11.60
2019-04-11T12:22:06.199Z,13.10
2019-04-11T12:24:46.214Z,12.50
2019-04-11T12:27:18.440Z,13.10
2019-04-11T12:30:07.404Z,14.30
2019-04-11T12:32:48.634Z,14.10
2019-04-11T12:35:32.864Z,11.50
2019-04-11T12:38:26.284Z,15.30
2019-04-11T12:41:13.109Z,14.87
2019-04-11T12:44:02.047Z,16.43
2019-04-11T12:46:49.277Z,14.83
2019-04-11T12:49:32.383Z,12.97
2019-04-11T12:52:23.243Z,10.30
2019-04-11T12:54:54.325Z,11.00
2019-04-11T12:57:25.412Z,12.17
2019-04-11T13:00:02.463Z,11.10
2019-04-11T13:02:46.216Z,15.20
2019-04-11T13:05:19.481Z,15.17
2019-04-11T13:07:50.621Z,14.27
2019-04-11T13:10:20.153Z,13.17
2019-04-11T13:12:54.059Z,14.13
2019-04-11T13:15:26.283Z,13.40
2019-04-11T13:18:02.931Z,11.13
2019-04-11T13:20:43.743Z,13.97
2019-04-11T13:23:23.737Z,18.93
2019-04-11T13:26:12.083Z,12.70
2019-04-11T13:28:43.171Z,19.33
2019-04-11T13:31:23.235Z,15.60
2019-04-11T13:33:54.430Z,13.23
2019-04-11T13:36:40.683Z,20.03
2019-04-11T13:39:10.303Z,19.73
2019-04-11T13:41:50.343Z,15.53
2019-04-11T13:44:19.893Z,16.30
2019-04-11T13:47:06.855Z,13.53
2019-04-11T13:49:38.311Z,16.20
2019-04-11T13:52:25.504Z,12.33
2019-04-11T13:55:00.853Z,14.40
2019-04-11T13:57:32.183Z,11.30
2019-04-11T14:00:19.467Z,13.27
2019-04-11T14:03:02.963Z,19.13
2019-04-11T14:05:45.191Z,15.63
2019-04-11T14:08:22.204Z,14.17
2019-04-11T14:10:55.971Z,14.97
2019-04-11T14:13:27.088Z,14.20
2019-04-11T14:16:00.683Z,16.17
2019-04-11T14:18:31.791Z,15.60
2019-04-11T14:21:05.827Z,17.13
2019-04-11T14:23:53.193Z,17.10
2019-04-11T14:26:35.969Z,15.00
2019-04-11T14:29:15.899Z,15.03
2019-04-11T14:31:50.819Z,13.83
2019-04-11T14:34:29.399Z,15.33
2019-04-11T14:37:16.517Z,14.73
2019-04-11T14:39:50.266Z,14.80
2019-04-11T14:42:36.261Z,12.80
2019-04-11T14:45:08.377Z,14.20
2019-04-11T14:47:40.099Z,13.87
2019-04-11T14:50:11.860Z,11.53
2019-04-11T14:52:59.165Z,13.17
2019-04-11T14:55:28.695Z,16.07
2019-04-11T14:57:59.864Z,21.03
2019-04-11T15:00:33.607Z,13.80
2019-04-11T15:03:04.695Z,17.73
2019-04-11T15:05:35.832Z,14.33
2019-04-11T15:08:05.652Z,15.93
2019-04-11T15:10:36.928Z,21.37
2019-04-11T15:13:08.185Z,18.07
2019-04-11T15:15:49.246Z,17.80
2019-04-11T15:18:19.319Z,14.23
2019-04-11T15:20:55.168Z,16.00
2019-04-11T15:23:28.616Z,13.30
2019-04-11T15:26:12.361Z,17.10
2019-04-11T15:28:43.912Z,16.80
2019-04-11T15:31:38.542Z,14.63
2019-04-11T15:34:00.121Z,14.63
2019-04-11T15:36:30.548Z,14.40
2019-04-11T15:39:13.629Z,17.37
2019-04-11T15:41:44.837Z,17.03
2019-04-11T15:44:31.820Z,14.63
2019-04-11T15:47:02.903Z,18.30
2019-04-11T15:49:49.976Z,15.83
2019-04-11T15:52:19.505Z,16.03
2019-04-11T15:55:07.796Z,19.60
2019-04-11T15:57:42.642Z,15.87
2019-04-11T16:00:16.868Z,15.83
2019-04-11T16:03:00.935Z,13.40
2019-04-11T16:05:35.009Z,15.27
2019-04-11T16:08:21.204Z,15.53
2019-04-11T16:10:52.371Z,15.53
2019-04-11T16:13:39.405Z,20.20
2019-04-11T16:16:12.002Z,15.77
2019-04-11T16:18:47.114Z,15.10
2019-04-11T16:21:21.193Z,18.47
2019-04-11T16:23:51.559Z,21.27
2019-04-11T16:26:26.954Z,15.40
2019-04-11T16:29:09.646Z,17.90
2019-04-11T16:31:43.474Z,17.83
2019-04-11T16:34:20.815Z,18.20
2019-04-11T16:36:51.525Z,15.27
2019-04-11T16:39:32.965Z,13.67
2019-04-11T16:42:04.360Z,13.87
2019-04-11T16:44:46.249Z,12.13
2019-04-11T16:47:19.688Z,14.10
2019-04-11T16:49:49.154Z,12.90
2019-04-11T16:52:18.594Z,13.90
2019-04-11T16:54:48.049Z,14.17
2019-04-11T16:57:17.532Z,14.90
2019-04-11T16:59:49.585Z,17.80
2019-04-11T17:02:21.819Z,14.83
2019-04-11T17:04:55.657Z,16.23
2019-04-11T17:07:30.340Z,15.23
2019-04-11T17:10:01.664Z,16.93
2019-04-11T17:12:31.994Z,14.67
2019-04-11T17:15:01.799Z,14.67
2019-04-11T17:17:32.380Z,15.00
2019-04-11T17:20:05.765Z,16.20
2019-04-11T17:22:34.020Z,15.20
2019-04-11T17:25:03.835Z,16.00
2019-04-11T17:27:33.993Z,17.67
2019-04-11T17:30:05.839Z,14.10
2019-04-11T17:32:37.555Z,18.97
2019-04-11T17:35:07.164Z,14.30
2019-04-11T17:37:36.694Z,15.30
2019-04-11T17:40:07.594Z,12.97
2019-04-11T17:42:37.327Z,14.40
2019-04-11T17:45:07.283Z,14.87
2019-04-11T17:47:37.828Z,17.87
2019-04-11T17:50:07.602Z,17.50
2019-04-11T17:52:37.138Z,14.80
2019-04-11T17:55:06.950Z,15.60
2019-04-11T17:57:36.403Z,17.23
2019-04-11T18:00:11.024Z,16.10
2019-04-11T18:02:41.576Z,19.77
2019-04-11T18:05:17.201Z,15.87
2019-04-11T18:07:50.043Z,19.33
2019-04-11T18:10:27.880Z,18.70
2019-04-11T18:13:00.346Z,25.23
2019-04-11T18:15:28.859Z,21.33
2019-04-11T18:18:05.427Z,22.57
2019-04-11T18:20:55.630Z,20.73
2019-04-11T18:23:43.982Z,21.17
2019-04-11T18:26:13.408Z,21.30
2019-04-11T18:28:42.920Z,21.23
2019-04-11T18:31:12.410Z,19.73
2019-04-11T18:33:41.946Z,22.40
2019-04-11T18:36:11.512Z,20.30
2019-04-11T18:38:41.148Z,20.57
2019-04-11T18:41:10.906Z,20.10
2019-04-11T18:43:41.954Z,23.07
2019-04-11T18:46:11.532Z,22.90
2019-04-11T18:48:42.143Z,22.90
2019-04-11T18:51:11.717Z,24.17
2019-04-11T18:53:41.199Z,22.57
2019-04-11T18:56:10.643Z,26.83
2019-04-11T18:58:44.228Z,21.83
2019-04-11T19:01:18.667Z,27.63
2019-04-11T19:04:17.953Z,23.32
2019-04-11T19:06:52.446Z,23.40
2019-04-11T19:09:22.413Z,21.30
2019-04-11T19:11:51.873Z,22.63
2019-04-11T19:14:24.576Z,25.63
2019-04-11T19:16:52.940Z,23.33
2019-04-11T19:19:22.447Z,22.10
2019-04-11T19:21:51.946Z,25.00
2019-04-11T19:24:22.409Z,23.23
2019-04-11T19:26:51.847Z,28.17
2019-04-11T19:29:24.750Z,26.07
2019-04-11T19:31:53.667Z,26.03
2019-04-11T19:34:23.091Z,27.77
2019-04-11T19:36:52.527Z,30.07
2019-04-11T19:39:23.509Z,19.67
2019-04-11T19:41:52.945Z,24.30
2019-04-11T19:44:22.541Z,25.50
2019-04-11T19:46:52.112Z,23.23
2019-04-11T19:49:21.596Z,20.33
2019-04-11T19:51:51.071Z,26.43
2019-04-11T19:54:20.603Z,24.20
2019-04-11T19:56:57.713Z,28.63
2019-04-11T19:59:27.841Z,27.10
2019-04-11T20:01:57.393Z,21.83
2019-04-11T20:04:30.380Z,24.07
2019-04-11T20:07:00.030Z,25.17
2019-04-11T20:09:30.608Z,25.30
2019-04-11T20:12:00.882Z,23.90
2019-04-11T20:14:33.867Z,27.90
2019-04-11T20:17:01.575Z,26.60
2019-04-11T20:19:31.150Z,26.80
2019-04-11T20:22:00.628Z,30.50
2019-04-11T20:24:30.117Z,37.27
2019-04-11T20:26:59.562Z,28.90
2019-04-11T20:29:32.599Z,36.57
2019-04-11T20:32:02.115Z,28.20
2019-04-11T20:34:31.597Z,40.43
2019-04-11T20:37:01.082Z,37.33
2019-04-11T20:39:30.580Z,34.30
2019-04-11T20:42:00.141Z,33.47
2019-04-11T20:44:29.653Z,37.17
2019-04-11T20:47:00.394Z,32.30
2019-04-11T20:49:30.300Z,36.03
2019-04-11T20:51:59.742Z,35.10
2019-04-11T20:54:29.343Z,31.13
2019-04-11T20:56:59.895Z,32.33
2019-04-11T20:59:34.941Z,32.13
2019-04-11T21:02:00.662Z,32.00
2019-04-11T21:04:31.347Z,35.40
2019-04-11T21:07:02.041Z,34.77
2019-04-11T21:09:33.352Z,30.80
2019-04-11T21:12:05.000Z,36.40
2019-04-11T21:14:34.283Z,33.10
2019-04-11T21:17:03.808Z,28.53
2019-04-11T21:19:33.309Z,30.30
2019-04-11T21:22:02.917Z,31.93
2019-04-11T21:24:32.432Z,29.00
2019-04-11T21:27:01.984Z,30.57
2019-04-11T21:29:31.506Z,32.43
2019-04-11T21:32:01.626Z,33.37
2019-04-11T21:34:32.346Z,32.40
2019-04-11T21:37:02.741Z,29.63
2019-04-11T21:39:32.291Z,36.20
2019-04-11T21:42:05.815Z,34.93
2019-04-11T21:44:36.018Z,30.83
2019-04-11T21:47:04.059Z,30.17
2019-04-11T21:49:36.611Z,33.67
2019-04-11T21:52:04.694Z,32.13
2019-04-11T21:54:34.291Z,33.10
2019-04-11T21:57:03.853Z,32.63
2019-04-11T21:59:33.362Z,30.80
2019-04-11T22:02:03.259Z,34.63
2019-04-11T22:04:32.960Z,33.23
2019-04-11T22:07:02.435Z,31.27
2019-04-11T22:09:33.036Z,32.13
2019-04-11T22:12:03.210Z,33.63
2019-04-11T22:14:32.845Z,29.90
2019-04-11T22:17:02.309Z,31.30
2019-04-11T22:19:31.808Z,30.57
2019-04-11T22:22:01.274Z,28.40
2019-04-11T22:24:30.827Z,34.13
2019-04-11T22:27:00.469Z,33.37
2019-04-11T22:29:30.065Z,32.47
2019-04-11T22:32:00.443Z,31.27
2019-04-11T22:34:37.066Z,34.90
2019-04-11T22:37:06.696Z,31.37
2019-04-11T22:39:36.228Z,30.93
2019-04-11T22:42:05.809Z,32.17
2019-04-11T22:44:35.585Z,39.03
2019-04-11T22:47:08.139Z,32.63
2019-04-11T22:49:39.407Z,37.30
2019-04-11T22:52:11.415Z,34.20
2019-04-11T22:54:41.210Z,40.23
2019-04-11T22:57:12.144Z,32.40
2019-04-11T22:59:44.937Z,34.90
2019-04-11T23:02:21.027Z,35.43
2019-04-11T23:04:51.482Z,35.47
2019-04-11T23:07:21.073Z,35.33
2019-04-11T23:09:50.616Z,32.70
2019-04-11T23:12:21.082Z,35.67
2019-04-11T23:14:51.567Z,33.90
2019-04-11T23:17:21.034Z,38.07
2019-04-11T23:19:50.539Z,35.93
2019-04-11T23:22:19.979Z,36.20
2019-04-11T23:24:49.428Z,35.47
2019-04-11T23:27:18.951Z,33.27
2019-04-11T23:29:48.455Z,32.70
2019-04-11T23:32:18.792Z,33.60
2019-04-11T23:34:49.925Z,34.73
2019-04-11T23:37:21.746Z,29.67
2019-04-11T23:39:51.727Z,31.90
2019-04-11T23:42:21.197Z,32.20
2019-04-11T23:44:51.233Z,34.33
2019-04-11T23:47:23.170Z,31.30
2019-04-11T23:49:55.043Z,33.23
2019-04-11T23:52:26.450Z,31.57
2019-04-11T23:54:53.944Z,34.70
2019-04-11T23:57:23.410Z,29.27
2019-04-11T23:59:52.863Z,31.10
